Time;durP1;ratioP1;P1;durP2;ratioP2;P2;SDS_P1;SDS_P2;PMS_P1;PMS_P2;Temp;Humidity;BMP_temperature;BMP_pressure;BME280_temperature;BME280_humidity;BME280_pressure;Samples;Min_cycle;Max_cycle;Signal;HPM_P1;HPM_P2
2022/07/19 00:00:23;;;;;;;5.57;3.70;;;29.50;47.90;;;;;;5052429;28;20469;-72
2022/07/19 00:02:49;;;;;;;6.25;3.42;;;29.40;48.00;;;;;;5052768;28;20019;-73
2022/07/19 00:05:14;;;;;;;9.10;3.45;;;29.50;48.00;;;;;;5052362;28;20108;-75
2022/07/19 00:07:41;;;;;;;6.07;3.20;;;29.40;47.80;;;;;;5052449;28;20514;-73
2022/07/19 00:10:09;;;;;;;8.20;3.42;;;29.30;48.00;;;;;;5052385;28;20105;-74
2022/07/19 00:12:35;;;;;;;8.20;3.78;;;29.30;47.80;;;;;;5052455;28;20025;-75
2022/07/19 00:15:02;;;;;;;8.15;3.30;;;29.30;48.00;;;;;;5052057;28;20068;-74
2022/07/19 00:17:28;;;;;;;5.88;3.40;;;29.30;48.00;;;;;;5052220;28;20378;-75
2022/07/19 00:19:54;;;;;;;6.00;3.20;;;29.30;47.80;;;;;;5052552;28;20510;-75
2022/07/19 00:22:20;;;;;;;6.68;3.25;;;29.30;47.80;;;;;;5052520;28;20027;-75
2022/07/19 00:24:45;;;;;;;6.88;3.15;;;29.30;47.40;;;;;;5034475;28;20033;-75
2022/07/19 00:27:11;;;;;;;4.95;3.30;;;29.30;47.70;;;;;;5052110;28;20374;-75
2022/07/19 00:29:37;;;;;;;7.55;3.47;;;29.20;47.60;;;;;;5054985;28;20029;-73
2022/07/19 00:32:03;;;;;;;5.95;3.30;;;29.20;47.40;;;;;;5056126;28;20025;-73
2022/07/19 00:34:29;;;;;;;6.25;3.20;;;29.20;47.40;;;;;;5055555;28;20521;-74
2022/07/19 00:36:55;;;;;;;7.53;3.42;;;29.20;47.70;;;;;;5038195;28;20021;-75
2022/07/19 00:39:20;;;;;;;6.78;3.92;;;29.20;47.70;;;;;;5055816;28;20064;-74
2022/07/19 00:41:46;;;;;;;6.10;3.60;;;29.10;47.80;;;;;;5055797;28;20025;-75
2022/07/19 00:44:12;;;;;;;6.47;3.30;;;29.10;47.80;;;;;;5055885;28;20032;-74
2022/07/19 00:46:38;;;;;;;8.68;3.50;;;29.10;47.90;;;;;;5055379;28;20051;-74
2022/07/19 00:49:05;;;;;;;6.30;3.30;;;29.00;48.00;;;;;;5055617;28;20462;-74
2022/07/19 00:51:35;;;;;;;5.13;3.28;;;29.00;48.20;;;;;;5055687;28;20049;-74
2022/07/19 00:54:02;;;;;;;6.88;3.33;;;29.00;48.20;;;;;;5037706;28;20390;-73
2022/07/19 00:56:32;;;;;;;6.15;3.15;;;28.90;48.20;;;;;;5055062;28;20060;-74
2022/07/19 00:59:03;;;;;;;5.95;3.45;;;28.90;48.30;;;;;;5055494;28;20029;-72
2022/07/19 01:01:29;;;;;;;5.10;3.35;;;28.90;47.20;;;;;;5055198;28;20100;-72
2022/07/19 01:03:56;;;;;;;5.10;3.15;;;28.80;48.40;;;;;;5055413;28;20109;-73
2022/07/19 01:06:22;;;;;;;5.20;3.10;;;28.80;48.40;;;;;;5037228;28;20028;-74
2022/07/19 01:08:48;;;;;;;5.60;3.13;;;28.80;48.40;;;;;;5055190;28;20485;-74
2022/07/19 01:11:14;;;;;;;5.10;3.17;;;28.80;48.40;;;;;;5037011;28;20039;-76
2022/07/19 01:13:39;;;;;;;4.95;3.35;;;28.80;48.40;;;;;;5055283;28;20021;-74
2022/07/19 01:16:05;;;;;;;7.88;3.20;;;28.80;48.40;;;;;;5054982;28;20028;-74
2022/07/19 01:18:31;;;;;;;6.22;3.40;;;28.70;48.40;;;;;;5055125;28;20021;-74
2022/07/19 01:20:58;;;;;;;7.10;3.30;;;28.60;48.70;;;;;;5056783;28;20048;-75
2022/07/19 01:23:24;;;;;;;6.22;3.33;;;28.60;48.90;;;;;;5055541;28;20492;-72
2022/07/19 01:25:50;;;;;;;5.75;3.30;;;28.60;49.00;;;;;;5054846;28;20043;-75
2022/07/19 01:28:16;;;;;;;5.47;3.40;;;28.70;49.00;;;;;;5054871;28;20398;-72
2022/07/19 01:30:42;;;;;;;6.05;3.30;;;28.70;49.10;;;;;;5054659;28;20032;-72
2022/07/19 01:33:08;;;;;;;6.38;3.28;;;28.60;49.20;;;;;;5055245;28;20032;-72
2022/07/19 01:35:33;;;;;;;8.93;3.58;;;28.60;49.20;;;;;;5054782;28;20107;-72
2022/07/19 01:37:59;;;;;;;7.97;3.50;;;28.50;49.40;;;;;;5054735;28;20028;-72
2022/07/19 01:40:25;;;;;;;5.35;3.25;;;28.50;49.50;;;;;;5053689;28;20032;-72
2022/07/19 01:42:51;;;;;;;6.90;3.50;;;28.50;49.60;;;;;;5054595;28;20086;-71
2022/07/19 01:45:19;;;;;;;8.50;3.50;;;28.40;50.00;;;;;;5054513;28;20465;-71
2022/07/19 01:47:45;;;;;;;5.45;3.00;;;28.40;50.10;;;;;;5054961;28;20389;-71
2022/07/19 01:50:15;;;;;;;5.63;3.50;;;28.30;50.00;;;;;;5055151;28;20056;-72
2022/07/19 01:52:40;;;;;;;5.75;3.60;;;28.30;50.20;;;;;;5054371;28;20028;-73
2022/07/19 01:55:07;;;;;;;6.80;3.47;;;28.30;50.20;;;;;;5054090;28;20108;-71
2022/07/19 01:57:32;;;;;;;10.80;3.38;;;28.30;50.00;;;;;;5054250;28;20053;-73
2022/07/19 01:59:58;;;;;;;5.88;3.33;;;28.30;50.20;;;;;;5054199;28;20028;-72
2022/07/19 02:02:24;;;;;;;7.10;3.65;;;28.30;50.10;;;;;;5054353;28;20032;-72
2022/07/19 02:04:50;;;;;;;7.20;3.45;;;28.30;50.10;;;;;;5054140;28;20047;-72
2022/07/19 02:07:16;;;;;;;7.90;3.50;;;28.30;50.10;;;;;;5054668;28;20462;-72
2022/07/19 02:09:42;;;;;;;4.40;3.30;;;28.20;50.30;;;;;;5054662;28;20469;-71
2022/07/19 02:12:08;;;;;;;6.53;3.70;;;28.20;50.30;;;;;;5054567;28;20296;-73
2022/07/19 02:14:33;;;;;;;7.28;3.75;;;28.20;50.20;;;;;;5054407;28;20039;-72
2022/07/19 02:16:59;;;;;;;6.22;2.90;;;28.10;50.40;;;;;;5054060;28;20107;-71
2022/07/19 02:19:25;;;;;;;6.72;3.47;;;28.10;50.60;;;;;;5054570;28;20028;-73
2022/07/19 02:21:50;;;;;;;8.68;3.63;;;28.10;50.70;;;;;;5054108;28;20452;-71
2022/07/19 02:24:16;;;;;;;7.13;3.40;;;28.00;50.90;;;;;;5035984;28;20070;-73
2022/07/19 02:26:42;;;;;;;7.75;3.78;;;28.00;51.10;;;;;;5053831;28;20028;-75
2022/07/19 02:29:09;;;;;;;5.63;3.45;;;28.00;51.00;;;;;;5054208;28;20485;-71
2022/07/19 02:31:35;;;;;;;7.82;3.17;;;28.00;51.50;;;;;;5053919;28;20021;-72
2022/07/19 02:34:01;;;;;;;6.68;3.08;;;28.00;51.40;;;;;;5053708;28;20025;-71
2022/07/19 02:36:27;;;;;;;9.18;3.90;;;27.90;51.60;;;;;;5053582;28;20031;-73
2022/07/19 02:38:52;;;;;;;5.15;3.22;;;27.90;51.90;;;;;;5054170;28;20025;-73
2022/07/19 02:41:18;;;;;;;6.97;3.75;;;27.80;51.80;;;;;;5053867;28;20029;-72
2022/07/19 02:43:44;;;;;;;5.65;3.40;;;27.80;51.90;;;;;;5053393;28;20485;-72
2022/07/19 02:46:10;;;;;;;6.93;3.90;;;27.80;52.00;;;;;;5053210;28;20025;-73
2022/07/19 02:48:36;;;;;;;7.18;3.30;;;27.80;52.00;;;;;;5053366;28;20028;-71
2022/07/19 02:51:01;;;;;;;7.93;3.20;;;27.80;52.10;;;;;;5053203;28;20047;-73
2022/07/19 02:53:27;;;;;;;6.82;3.20;;;27.80;52.10;;;;;;5053313;28;20053;-74
2022/07/19 02:55:53;;;;;;;7.30;3.53;;;27.70;52.10;;;;;;5052919;28;20516;-73
2022/07/19 02:58:19;;;;;;;6.82;3.47;;;27.70;52.30;;;;;;5053497;28;20458;-72
2022/07/19 03:00:45;;;;;;;4.20;3.10;;;27.70;52.10;;;;;;5053431;28;20566;-72
2022/07/19 03:05:56;;;;;;;5.82;3.33;;;27.70;51.20;;;;;;5053374;28;20082;-73
2022/07/19 03:08:21;;;;;;;5.97;3.28;;;27.80;52.50;;;;;;5053153;28;20032;-75
2022/07/19 03:10:47;;;;;;;9.93;3.60;;;27.80;53.00;;;;;;5053466;28;20021;-73
2022/07/19 03:13:13;;;;;;;15.43;4.00;;;27.80;52.40;;;;;;5053317;28;20474;-73
2022/07/19 03:15:39;;;;;;;6.85;3.60;;;27.80;52.40;;;;;;5052942;28;20114;-72
2022/07/19 03:18:05;;;;;;;7.63;3.60;;;27.80;52.50;;;;;;5034877;28;20025;-71
2022/07/19 03:20:31;;;;;;;6.60;3.72;;;27.70;52.90;;;;;;5054659;28;20037;-72
2022/07/19 03:22:57;;;;;;;6.40;3.78;;;27.70;53.00;;;;;;5054415;28;20013;-71
2022/07/19 03:25:23;;;;;;;6.72;3.35;;;27.70;52.80;;;;;;5055293;28;20057;-71
2022/07/19 03:27:49;;;;;;;4.57;3.13;;;27.70;53.00;;;;;;5052853;28;20029;-72
2022/07/19 03:30:15;;;;;;;5.75;3.53;;;27.60;53.10;;;;;;5053149;28;20083;-71
2022/07/19 03:32:41;;;;;;;6.68;3.53;;;27.60;53.00;;;;;;5053022;28;20112;-71
2022/07/19 03:35:07;;;;;;;5.28;3.70;;;27.60;53.00;;;;;;5052763;28;20547;-71
2022/07/19 03:37:33;;;;;;;6.00;3.38;;;27.60;52.40;;;;;;5053969;28;20029;-71
2022/07/19 03:39:58;;;;;;;6.75;3.42;;;27.60;52.80;;;;;;5052841;28;20071;-71
2022/07/19 03:42:24;;;;;;;5.70;3.80;;;27.60;52.90;;;;;;5052780;28;20033;-72
2022/07/19 03:44:50;;;;;;;6.72;4.28;;;27.60;52.90;;;;;;5053134;28;20099;-71
2022/07/19 03:47:15;;;;;;;6.00;3.83;;;27.60;52.80;;;;;;5034799;28;20466;-72
2022/07/19 03:49:41;;;;;;;7.70;3.70;;;27.50;53.10;;;;;;5052431;28;20033;-71
2022/07/19 03:52:07;;;;;;;12.23;3.97;;;27.40;53.10;;;;;;5052473;28;20025;-70
2022/07/19 03:54:33;;;;;;;8.43;3.30;;;27.40;53.30;;;;;;5052746;28;20025;-71
2022/07/19 03:56:58;;;;;;;8.32;4.45;;;27.40;53.50;;;;;;5052735;28;20134;-70
2022/07/19 03:59:24;;;;;;;10.23;3.88;;;27.40;53.40;;;;;;5052426;28;20370;-71
2022/07/19 04:01:50;;;;;;;12.27;4.00;;;27.30;53.40;;;;;;5052325;28;20036;-72
2022/07/19 04:04:16;;;;;;;7.00;3.88;;;27.40;54.00;;;;;;5054734;28;20017;-70
2022/07/19 04:06:42;;;;;;;9.05;4.70;;;27.40;53.90;;;;;;5056350;28;20021;-71
2022/07/19 04:09:08;;;;;;;8.15;4.00;;;27.40;53.70;;;;;;5038415;28;20111;-71
2022/07/19 04:11:34;;;;;;;9.05;3.95;;;27.40;54.10;;;;;;5056704;28;20060;-75
2022/07/19 04:13:59;;;;;;;11.57;4.20;;;27.40;54.30;;;;;;5056205;28;20083;-74
2022/07/19 04:16:25;;;;;;;8.15;3.95;;;27.40;54.20;;;;;;5056106;28;20048;-73
2022/07/19 04:18:51;;;;;;;5.38;3.95;;;27.40;54.40;;;;;;5056150;28;20082;-74
2022/07/19 04:21:16;;;;;;;7.65;4.03;;;27.30;54.50;;;;;;5056172;28;20031;-74
2022/07/19 04:23:42;;;;;;;9.43;4.18;;;27.30;54.60;;;;;;5056471;28;20529;-74
2022/07/19 04:26:08;;;;;;;10.55;4.53;;;27.40;54.50;;;;;;5056019;28;20025;-74
2022/07/19 04:28:34;;;;;;;6.97;4.00;;;27.30;54.70;;;;;;5055982;28;20025;-72
2022/07/19 04:30:59;;;;;;;7.07;3.83;;;27.30;55.00;;;;;;5038020;28;20025;-74
2022/07/19 04:33:26;;;;;;;6.95;3.75;;;27.30;55.20;;;;;;5056177;28;20062;-74
2022/07/19 04:35:53;;;;;;;8.20;4.28;;;27.30;55.10;;;;;;5055741;28;20044;-73
2022/07/19 04:38:19;;;;;;;8.55;4.30;;;27.30;55.10;;;;;;5055731;28;20025;-74
2022/07/19 04:40:45;;;;;;;7.85;4.15;;;27.30;55.20;;;;;;5055870;28;20033;-74
2022/07/19 04:43:11;;;;;;;10.93;5.75;;;27.30;55.10;;;;;;5055811;28;20025;-74
2022/07/19 04:45:39;;;;;;;8.75;5.28;;;27.40;55.10;;;;;;5055594;28;20037;-73
2022/07/19 04:48:05;;;;;;;8.32;4.65;;;27.40;55.20;;;;;;5055693;28;20063;-74
2022/07/19 04:50:31;;;;;;;12.88;4.68;;;27.40;54.80;;;;;;5055770;28;20169;-76
2022/07/19 04:52:57;;;;;;;9.80;4.55;;;27.50;55.00;;;;;;5055508;28;20429;-73
2022/07/19 04:55:23;;;;;;;9.73;4.93;;;27.60;54.90;;;;;;5037332;28;20124;-73
2022/07/19 04:57:48;;;;;;;7.25;4.30;;;27.50;54.70;;;;;;5037572;28;20063;-73
2022/07/19 05:00:15;;;;;;;9.15;4.43;;;27.50;54.80;;;;;;5055401;28;20025;-73
2022/07/19 05:02:41;;;;;;;7.47;4.22;;;27.50;55.10;;;;;;5055480;28;20033;-75
2022/07/19 05:05:07;;;;;;;6.95;3.92;;;27.50;54.80;;;;;;5056022;28;20029;-73
2022/07/19 05:07:32;;;;;;;10.55;4.20;;;27.50;55.00;;;;;;5055536;28;20479;-77
2022/07/19 05:09:59;;;;;;;8.80;4.28;;;27.50;55.30;;;;;;5037386;28;20525;-75
2022/07/19 05:12:25;;;;;;;9.85;4.75;;;27.60;54.40;;;;;;5037568;28;20021;-74
2022/07/19 05:14:51;;;;;;;5.85;4.03;;;27.60;55.50;;;;;;5055310;28;20032;-73
2022/07/19 05:17:16;;;;;;;8.95;4.43;;;27.60;54.80;;;;;;5055430;28;20029;-74
2022/07/19 05:19:42;;;;;;;11.70;4.90;;;27.70;54.80;;;;;;5055008;28;20091;-76
2022/07/19 05:22:08;;;;;;;8.70;4.47;;;27.70;55.10;;;;;;5055577;28;20025;-76
2022/07/19 05:24:34;;;;;;;10.90;4.50;;;27.80;54.60;;;;;;5055176;28;20048;-74
2022/07/19 05:27:00;;;;;;;11.63;4.43;;;28.00;54.30;;;;;;5055037;28;20119;-75
2022/07/19 05:29:25;;;;;;;9.35;4.55;;;28.30;54.00;;;;;;5055114;28;20103;-73
2022/07/19 05:31:51;;;;;;;12.52;4.75;;;28.60;53.40;;;;;;5037037;28;20037;-72
2022/07/19 05:34:17;;;;;;;10.95;3.97;;;28.80;52.80;;;;;;5054824;28;20033;-73
2022/07/19 05:36:43;;;;;;;12.18;4.15;;;29.10;53.00;;;;;;5055138;28;20017;-72
2022/07/19 05:39:09;;;;;;;7.65;3.78;;;29.50;51.60;;;;;;5054874;28;20071;-74
2022/07/19 05:41:34;;;;;;;9.68;4.05;;;29.80;51.10;;;;;;5055979;28;20029;-73
2022/07/19 05:44:00;;;;;;;8.45;4.28;;;30.10;50.50;;;;;;5055493;28;20346;-72
2022/07/19 05:46:26;;;;;;;8.80;3.92;;;30.30;50.40;;;;;;5055201;28;20091;-73
2022/07/19 05:48:52;;;;;;;10.60;4.47;;;30.50;49.90;;;;;;5054667;28;20465;-74
2022/07/19 05:51:17;;;;;;;11.50;4.32;;;30.70;49.70;;;;;;5054511;28;20396;-73
2022/07/19 05:53:43;;;;;;;8.20;4.03;;;30.80;49.40;;;;;;5036426;28;20065;-72
2022/07/19 05:56:10;;;;;;;11.90;4.57;;;30.90;49.00;;;;;;5053856;28;20130;-71
2022/07/19 05:58:35;;;;;;;8.93;4.18;;;31.10;49.30;;;;;;5054480;28;20040;-73
2022/07/19 06:01:19;;;;;;;12.18;4.72;;;31.40;48.70;;;;;;5054178;28;20033;-72
2022/07/19 06:03:49;;;;;;;;;;;31.60;48.00;;;;;;5036423;28;20084;-71
2022/07/19 06:06:15;;;;;;;11.80;3.58;;;31.90;46.50;;;;;;5053780;28;20370;-72
2022/07/19 06:08:41;;;;;;;9.68;3.45;;;32.10;48.60;;;;;;5053660;28;20124;-74
2022/07/19 06:11:07;;;;;;;9.63;4.38;;;32.30;46.70;;;;;;5054062;28;20016;-73
2022/07/19 06:13:33;;;;;;;8.52;3.90;;;32.40;46.30;;;;;;5053552;28;20025;-73
2022/07/19 06:15:58;;;;;;;11.45;3.92;;;32.60;46.10;;;;;;5053560;28;20108;-73
2022/07/19 06:18:24;;;;;;;10.77;4.72;;;32.50;46.00;;;;;;5053563;28;20028;-73
2022/07/19 06:20:50;;;;;;;14.40;4.28;;;32.60;46.20;;;;;;5053616;28;20478;-74
2022/07/19 06:23:15;;;;;;;7.97;3.90;;;32.70;45.60;;;;;;5035595;28;20073;-73
2022/07/19 06:25:41;;;;;;;10.35;4.30;;;32.60;45.30;;;;;;5053263;28;20425;-73
2022/07/19 06:28:07;;;;;;;10.45;3.90;;;32.70;45.50;;;;;;5053569;28;20500;-73
2022/07/19 06:30:33;;;;;;;9.45;3.90;;;32.70;44.70;;;;;;5053980;28;20083;-72
2022/07/19 06:32:59;;;;;;;8.77;3.83;;;32.80;45.10;;;;;;5053369;28;20404;-73
2022/07/19 06:35:25;;;;;;;8.52;4.20;;;33.00;45.00;;;;;;5035599;28;20032;-73
2022/07/19 06:37:51;;;;;;;9.98;4.00;;;33.10;45.10;;;;;;5053265;28;20031;-75
2022/07/19 06:40:17;;;;;;;9.65;3.78;;;33.20;44.10;;;;;;5053001;28;20029;-73
2022/07/19 06:42:43;;;;;;;8.73;4.63;;;33.50;44.10;;;;;;5053187;28;20016;-73
2022/07/19 06:45:09;;;;;;;8.25;4.07;;;33.70;43.80;;;;;;5052842;28;20025;-75
2022/07/19 06:47:35;;;;;;;12.85;4.43;;;33.90;43.50;;;;;;5052993;28;20032;-73
2022/07/19 06:50:01;;;;;;;14.82;3.92;;;34.00;43.60;;;;;;5053228;28;20029;-73
2022/07/19 06:52:27;;;;;;;17.33;3.90;;;34.10;42.80;;;;;;5053414;28;20032;-72
2022/07/19 06:54:52;;;;;;;8.55;3.90;;;34.20;42.70;;;;;;5034963;28;20037;-75
2022/07/19 06:57:18;;;;;;;10.35;3.90;;;34.10;42.60;;;;;;5052855;28;20045;-74
2022/07/19 06:59:44;;;;;;;10.23;4.13;;;34.10;42.90;;;;;;5052782;28;20025;-72
2022/07/19 07:02:10;;;;;;;10.00;4.30;;;34.10;42.90;;;;;;5053408;28;20029;-73
2022/07/19 07:04:35;;;;;;;25.30;5.15;;;34.10;42.60;;;;;;5052764;28;20023;-72
2022/07/19 07:07:01;;;;;;;13.93;4.38;;;34.20;42.70;;;;;;5053040;28;20064;-73
2022/07/19 07:09:27;;;;;;;9.32;4.10;;;34.20;42.50;;;;;;5034568;28;20032;-73
2022/07/19 07:11:52;;;;;;;21.73;4.85;;;34.10;42.60;;;;;;5052877;28;20033;-72
2022/07/19 07:14:18;;;;;;;9.82;4.20;;;34.20;42.70;;;;;;5052731;28;20064;-73
2022/07/19 07:16:44;;;;;;;10.23;4.60;;;34.30;42.30;;;;;;5052410;28;20033;-75
2022/07/19 07:19:10;;;;;;;11.40;4.60;;;34.50;42.10;;;;;;5052862;28;20029;-71
2022/07/19 07:21:35;;;;;;;13.57;4.05;;;34.40;42.20;;;;;;5052539;28;20041;-72
2022/07/19 07:24:02;;;;;;;24.50;4.65;;;34.50;42.00;;;;;;5052621;28;20422;-74
2022/07/19 07:26:28;;;;;;;13.20;3.70;;;34.60;42.00;;;;;;5052634;28;20037;-73
2022/07/19 07:28:54;;;;;;;10.65;4.03;;;34.80;41.80;;;;;;5052360;28;20021;-72
2022/07/19 07:31:19;;;;;;;11.68;4.60;;;34.90;41.70;;;;;;5052507;28;20029;-75
2022/07/19 07:33:45;;;;;;;13.65;4.10;;;35.00;41.40;;;;;;5052522;28;20021;-72
2022/07/19 07:36:11;;;;;;;10.77;4.30;;;35.10;41.10;;;;;;5052407;28;20041;-72
2022/07/19 07:38:37;;;;;;;9.95;3.90;;;35.20;41.00;;;;;;5053904;28;20027;-73
2022/07/19 07:41:05;;;;;;;10.35;4.57;;;35.10;40.90;;;;;;5056875;28;20113;-73
2022/07/19 07:43:31;;;;;;;7.68;3.72;;;35.10;40.80;;;;;;5056723;28;20021;-76
2022/07/19 07:45:57;;;;;;;11.15;3.80;;;35.20;40.70;;;;;;5056626;28;20132;-73
2022/07/19 07:48:23;;;;;;;8.10;4.07;;;35.20;40.60;;;;;;5058757;28;20029;-74
2022/07/19 07:50:49;;;;;;;7.30;4.15;;;35.20;40.40;;;;;;5056897;28;20021;-75
2022/07/19 07:53:14;;;;;;;10.68;4.40;;;35.20;40.40;;;;;;5056538;28;20104;-73
2022/07/19 07:55:41;;;;;;;12.23;4.28;;;35.10;40.40;;;;;;5056095;28;20578;-73
2022/07/19 07:58:11;;;;;;;11.30;3.90;;;35.10;40.60;;;;;;5056346;28;20097;-73
2022/07/19 08:00:38;;;;;;;13.82;4.90;;;35.00;40.60;;;;;;5056635;28;20526;-73
2022/07/19 08:03:04;;;;;;;17.98;4.57;;;34.90;40.50;;;;;;5056279;28;20032;-75
2022/07/19 08:05:31;;;;;;;9.57;4.03;;;34.80;40.40;;;;;;5056192;28;20033;-72
2022/07/19 08:07:57;;;;;;;7.82;3.90;;;34.80;40.60;;;;;;5056903;28;20470;-71
2022/07/19 08:10:25;;;;;;;11.93;4.35;;;34.70;40.30;;;;;;5056410;28;20033;-73
2022/07/19 08:12:51;;;;;;;9.63;4.28;;;34.60;40.50;;;;;;5056297;28;20151;-73
2022/07/19 08:15:18;;;;;;;13.10;4.70;;;34.70;40.60;;;;;;5055862;28;20100;-75
2022/07/19 08:17:43;;;;;;;10.90;4.47;;;34.70;40.80;;;;;;5037867;28;20129;-73
2022/07/19 08:20:09;;;;;;;9.35;3.95;;;34.70;40.50;;;;;;5056118;28;20496;-74
2022/07/19 08:22:35;;;;;;;11.68;4.25;;;34.60;40.70;;;;;;5056162;28;20466;-72
2022/07/19 08:25:01;;;;;;;13.35;3.97;;;34.50;40.60;;;;;;5055548;28;20032;-76
2022/07/19 08:27:27;;;;;;;10.13;3.85;;;34.30;40.80;;;;;;5037699;28;20057;-72
2022/07/19 08:29:53;;;;;;;15.55;5.00;;;34.20;41.10;;;;;;5055892;28;20028;-73
2022/07/19 08:32:18;;;;;;;10.63;4.10;;;34.10;41.40;;;;;;5055937;28;20036;-73
2022/07/19 08:34:44;;;;;;;8.77;3.90;;;34.20;41.40;;;;;;5056172;28;20032;-72
2022/07/19 08:37:10;;;;;;;8.95;4.15;;;34.20;41.40;;;;;;5056683;28;20477;-73
2022/07/19 08:39:36;;;;;;;8.93;4.68;;;34.10;41.10;;;;;;5055527;28;20075;-73
2022/07/19 08:42:01;;;;;;;15.70;4.28;;;34.10;41.30;;;;;;5055663;28;20059;-74
2022/07/19 08:44:29;;;;;;;10.35;4.53;;;34.10;41.30;;;;;;5037458;28;20025;-73
2022/07/19 08:46:55;;;;;;;9.50;4.03;;;34.20;41.20;;;;;;5055391;28;20025;-71
2022/07/19 08:49:22;;;;;;;6.35;4.07;;;34.10;41.30;;;;;;5054936;28;20047;-72
2022/07/19 08:51:48;;;;;;;8.55;3.83;;;34.10;41.60;;;;;;5037283;28;20434;-72
2022/07/19 08:54:15;;;;;;;13.68;4.10;;;34.00;40.90;;;;;;5055214;28;20115;-71
2022/07/19 08:59:26;;;;;;;12.27;4.93;;;33.80;40.90;;;;;;5056175;28;20032;-73
2022/07/19 09:01:51;;;;;;;9.07;4.07;;;33.80;40.80;;;;;;5055391;28;20513;-73
2022/07/19 09:04:20;;;;;;;11.07;4.53;;;33.90;40.60;;;;;;5055297;28;20068;-73
2022/07/19 09:06:53;;;;;;;12.60;4.22;;;33.90;40.60;;;;;;5055196;28;20430;-73
2022/07/19 09:09:21;;;;;;;11.75;3.85;;;33.90;41.20;;;;;;5036939;28;20033;-73
2022/07/19 09:11:50;;;;;;;7.78;3.97;;;33.90;40.10;;;;;;5055145;28;20041;-73
2022/07/19 09:14:21;;;;;;;7.05;4.10;;;33.80;40.00;;;;;;5054851;28;20091;-72
2022/07/19 09:16:48;;;;;;;10.82;3.60;;;33.90;39.90;;;;;;5054874;28;20481;-74
2022/07/19 09:19:14;;;;;;;9.18;4.13;;;33.80;39.90;;;;;;5054890;28;20029;-72
2022/07/19 09:21:56;;;;;;;12.13;4.82;;;33.90;40.00;;;;;;5054733;28;20474;-74
2022/07/19 09:24:23;;;;;;;11.32;4.20;;;33.90;40.30;;;;;;5055095;28;20017;-73
2022/07/19 09:26:59;;;;;;;9.80;4.30;;;33.90;40.00;;;;;;5054801;28;20032;-75
2022/07/19 09:29:26;;;;;;;15.73;4.30;;;33.90;41.00;;;;;;5054827;28;20465;-75
2022/07/19 09:32:03;;;;;;;16.55;5.55;;;33.90;39.80;;;;;;5054506;28;20040;-73
2022/07/19 09:34:31;;;;;;;13.40;4.70;;;34.00;40.10;;;;;;5054321;28;20032;-74
2022/07/19 09:37:15;;;;;;;9.20;4.25;;;34.10;39.80;;;;;;5054435;28;20025;-74
2022/07/19 09:39:44;;;;;;;10.30;4.47;;;34.20;39.90;;;;;;5054602;28;20025;-73
2022/07/19 09:42:12;;;;;;;16.13;4.43;;;34.20;39.80;;;;;;5054372;28;20074;-73
2022/07/19 09:44:39;;;;;;;12.30;4.18;;;34.20;39.60;;;;;;5054580;28;20146;-71
2022/07/19 09:47:05;;;;;;;8.68;4.07;;;34.20;39.70;;;;;;5054506;28;20029;-73
2022/07/19 09:49:30;;;;;;;7.72;4.43;;;34.10;39.30;;;;;;5054292;28;20544;-75
2022/07/19 09:51:56;;;;;;;9.35;4.13;;;34.10;39.40;;;;;;5036407;28;20029;-75
2022/07/19 09:54:26;;;;;;;9.00;4.05;;;34.00;39.30;;;;;;5054420;28;20032;-73
2022/07/19 09:56:53;;;;;;;13.52;4.20;;;34.00;39.40;;;;;;5054177;28;20509;-76
2022/07/19 09:59:20;;;;;;;8.07;4.43;;;33.90;39.30;;;;;;5054194;28;20029;-74
2022/07/19 10:01:51;;;;;;;13.88;4.82;;;33.90;39.40;;;;;;5053536;28;20548;-74
2022/07/19 10:04:19;;;;;;;10.18;4.60;;;34.10;39.60;;;;;;5054260;28;20055;-75
2022/07/19 10:06:46;;;;;;;8.90;4.00;;;34.10;39.30;;;;;;5036455;28;20029;-73
2022/07/19 10:09:15;;;;;;;9.18;4.07;;;34.20;39.00;;;;;;5054269;28;20025;-75
2022/07/19 10:11:41;;;;;;;10.35;3.95;;;34.20;38.50;;;;;;5054350;28;20438;-74
2022/07/19 10:14:07;;;;;;;10.82;3.90;;;34.30;38.20;;;;;;5053885;28;20501;-72
2022/07/19 10:16:48;;;;;;;13.05;3.55;;;34.40;38.30;;;;;;5053916;28;20039;-73
2022/07/19 10:19:38;;;;;;;8.07;3.45;;;34.50;38.10;;;;;;5036212;28;20571;-73
2022/07/19 10:22:08;;;;;;;5.40;3.30;;;34.50;37.50;;;;;;5053696;28;20423;-72
2022/07/19 10:24:48;;;;;;;11.15;3.88;;;34.50;37.10;;;;;;5053202;28;20013;-73
2022/07/19 10:27:23;;;;;;;10.43;3.97;;;34.40;37.40;;;;;;5035486;28;20062;-74
2022/07/19 10:29:50;;;;;;;8.18;3.20;;;34.40;36.90;;;;;;5053569;28;20021;-75
2022/07/19 10:32:16;;;;;;;9.48;3.25;;;34.40;36.80;;;;;;5053480;28;20087;-72
2022/07/19 10:34:46;;;;;;;8.73;3.17;;;34.50;36.90;;;;;;5053336;28;20033;-74
2022/07/19 10:37:12;;;;;;;5.57;3.30;;;34.60;36.70;;;;;;5053147;28;20416;-73
2022/07/19 10:39:39;;;;;;;6.35;3.63;;;34.60;36.80;;;;;;5053125;28;20021;-75
2022/07/19 10:42:20;;;;;;;9.13;3.70;;;34.70;36.50;;;;;;5053149;28;20482;-73
2022/07/19 10:44:55;;;;;;;11.85;4.35;;;34.80;36.50;;;;;;5053115;28;20098;-75
2022/07/19 10:47:35;;;;;;;13.27;4.20;;;34.90;36.80;;;;;;5035070;28;20029;-75
2022/07/19 10:50:06;;;;;;;9.18;3.80;;;34.90;36.90;;;;;;5053671;28;20037;-75
2022/07/19 10:52:39;;;;;;;9.77;4.28;;;35.00;36.30;;;;;;5053793;28;20074;-73
2022/07/19 10:55:27;;;;;;;8.25;4.20;;;35.00;35.70;;;;;;5053122;28;20037;-76
2022/07/19 10:58:05;;;;;;;8.00;4.03;;;35.00;35.70;;;;;;5053182;28;20037;-73
2022/07/19 11:00:32;;;;;;;7.25;4.28;;;35.00;35.50;;;;;;5053359;28;20032;-74
2022/07/19 11:03:23;;;;;;;8.35;4.55;;;35.00;35.80;;;;;;5053275;28;20120;-75
2022/07/19 11:05:54;;;;;;;7.65;4.50;;;35.00;35.70;;;;;;5052742;28;20115;-76
2022/07/19 11:08:40;;;;;;;8.95;3.80;;;35.00;35.70;;;;;;5052706;28;20128;-73
2022/07/19 11:11:08;;;;;;;7.68;4.18;;;35.10;36.10;;;;;;5052578;28;20462;-74
2022/07/19 11:13:35;;;;;;;6.75;4.10;;;35.10;35.40;;;;;;5052435;28;20079;-77
2022/07/19 11:16:05;;;;;;;10.45;4.13;;;35.20;35.60;;;;;;5051363;28;20469;-74
2022/07/19 11:18:33;;;;;;;6.43;3.63;;;35.30;36.70;;;;;;5052900;28;20075;-74
2022/07/19 11:21:01;;;;;;;7.43;4.05;;;35.40;34.50;;;;;;5052795;28;20103;-76
2022/07/19 11:23:32;;;;;;;8.45;4.05;;;35.50;34.00;;;;;;5052734;28;20013;-73
2022/07/19 11:26:15;;;;;;;6.18;3.90;;;35.60;33.70;;;;;;5052653;28;20136;-76
2022/07/19 11:28:43;;;;;;;9.65;4.03;;;35.60;32.90;;;;;;5053047;28;20017;-76
2022/07/19 11:31:20;;;;;;;8.70;3.95;;;35.60;33.40;;;;;;5052337;28;20059;-77
2022/07/19 11:33:48;;;;;;;9.57;3.90;;;35.70;35.60;;;;;;5052739;28;20031;-74
2022/07/19 11:36:15;;;;;;;12.27;4.75;;;35.80;36.00;;;;;;5052669;28;20091;-76
2022/07/19 11:38:51;;;;;;;9.35;4.20;;;35.80;36.70;;;;;;5052735;28;20017;-76
2022/07/19 11:41:37;;;;;;;12.85;4.40;;;35.90;36.90;;;;;;5052492;28;20033;-77
2022/07/19 11:44:07;;;;;;;7.95;4.40;;;36.00;37.00;;;;;;5052454;28;20029;-76
2022/07/19 11:46:41;;;;;;;11.63;4.15;;;36.10;37.10;;;;;;5052757;28;20056;-78
2022/07/19 11:49:09;;;;;;;10.50;4.10;;;36.10;37.30;;;;;;5053015;28;20028;-78
2022/07/19 11:51:36;;;;;;;11.00;4.07;;;36.20;36.30;;;;;;5053267;28;20025;-76
2022/07/19 11:54:04;;;;;;;11.93;4.60;;;36.20;36.30;;;;;;5052854;28;20040;-76
2022/07/19 11:56:33;;;;;;;7.57;3.47;;;36.20;36.10;;;;;;5052744;28;20053;-75
2022/07/19 11:59:10;;;;;;;6.57;4.15;;;36.20;36.10;;;;;;5052682;28;20032;-75
2022/07/19 12:01:38;;;;;;;8.10;3.63;;;36.20;36.10;;;;;;5052573;28;20455;-74
2022/07/19 12:04:12;;;;;;;9.35;4.07;;;36.20;36.10;;;;;;5052528;28;20028;-73
2022/07/19 12:06:49;;;;;;;5.90;3.78;;;36.20;36.20;;;;;;5052577;28;20036;-75
2022/07/19 12:09:36;;;;;;;8.30;3.78;;;36.20;36.50;;;;;;5052491;28;20155;-74
2022/07/19 12:12:14;;;;;;;11.95;3.83;;;36.20;36.30;;;;;;5052769;28;20036;-74
2022/07/19 12:14:40;;;;;;;10.90;4.43;;;36.30;35.70;;;;;;5052225;28;20036;-72
2022/07/19 12:17:16;;;;;;;5.88;3.88;;;36.20;35.60;;;;;;5052484;28;20017;-74
2022/07/19 12:19:52;;;;;;;10.80;3.75;;;36.10;36.00;;;;;;5052351;28;20190;-75
2022/07/19 12:22:34;;;;;;;10.85;3.75;;;36.10;36.50;;;;;;5052489;28;20025;-75
2022/07/19 12:25:00;;;;;;;8.30;3.63;;;36.20;35.70;;;;;;5053978;28;20559;-75
2022/07/19 12:27:29;;;;;;;6.15;3.60;;;36.20;35.70;;;;;;5056346;28;20466;-74
2022/07/19 12:29:56;;;;;;;8.25;3.78;;;36.20;36.00;;;;;;5038454;28;20032;-75
2022/07/19 12:32:30;;;;;;;10.65;3.97;;;36.30;35.70;;;;;;5056617;28;20258;-75
2022/07/19 12:35:03;;;;;;;9.68;3.80;;;36.40;35.60;;;;;;5056228;28;20331;-72
2022/07/19 12:37:35;;;;;;;8.57;3.97;;;36.30;35.80;;;;;;5055967;28;20025;-75
2022/07/19 12:40:22;;;;;;;8.23;4.50;;;36.30;35.60;;;;;;5056146;28;20021;-76
2022/07/19 12:42:59;;;;;;;9.18;4.90;;;36.30;35.70;;;;;;5056267;28;20111;-75
2022/07/19 12:45:28;;;;;;;9.63;5.28;;;36.30;35.50;;;;;;5055972;28;20021;-75
2022/07/19 12:47:54;;;;;;;11.57;4.93;;;36.20;35.30;;;;;;5056017;28;20025;-77
2022/07/19 12:50:27;;;;;;;10.43;4.93;;;36.20;35.30;;;;;;5055547;28;20048;-76